createdAt,value
2019-04-29T00:01:39.122Z,98560.15
2019-04-29T00:04:09.411Z,98568.11
2019-04-29T00:06:39.331Z,98570.47
2019-04-29T00:09:16.314Z,98569.17
2019-04-29T00:11:46.617Z,98568.30
2019-04-29T00:14:16.710Z,98568.66
2019-04-29T00:17:02.204Z,98566.25
2019-04-29T00:19:40.201Z,98566.60
2019-04-29T00:22:10.199Z,98565.63
2019-04-29T00:24:40.441Z,98560.69
2019-04-29T00:27:10.479Z,98565.92
2019-04-29T00:29:40.668Z,98563.23
2019-04-29T00:32:11.022Z,98559.90
2019-04-29T00:34:40.986Z,98567.72
2019-04-29T00:37:29.844Z,98573.34
2019-04-29T00:40:36.976Z,98580.59
2019-04-29T00:43:14.097Z,98579.27
2019-04-29T00:45:44.308Z,98577.09
2019-04-29T00:48:14.525Z,98579.62
2019-04-29T00:50:44.761Z,98576.58
2019-04-29T00:53:15.182Z,98567.98
2019-04-29T00:55:45.104Z,98567.14
2019-04-29T00:58:15.102Z,98573.05
2019-04-29T01:00:45.066Z,98567.33
2019-04-29T01:03:15.431Z,98563.34
2019-04-29T01:05:45.697Z,98571.38
2019-04-29T01:08:15.802Z,98571.66
2019-04-29T01:10:46.049Z,98570.52
2019-04-29T01:13:16.003Z,98574.19
2019-04-29T01:15:46.842Z,98579.95
2019-04-29T01:18:16.838Z,98574.39
2019-04-29T01:20:46.767Z,98579.69
2019-04-29T01:23:16.836Z,98577.66
2019-04-29T01:25:49.294Z,98586.28
2019-04-29T01:28:27.942Z,98581.78
2019-04-29T01:31:05.667Z,98581.30
2019-04-29T01:33:35.698Z,98583.00
2019-04-29T01:36:23.133Z,98585.09
2019-04-29T01:38:54.729Z,98581.57
2019-04-29T01:41:26.737Z,98580.26
2019-04-29T01:44:00.745Z,98576.86
2019-04-29T01:46:30.995Z,98582.23
2019-04-29T01:49:01.421Z,98578.54
2019-04-29T01:51:31.891Z,98576.81
2019-04-29T01:54:01.926Z,98581.73
2019-04-29T01:56:31.931Z,98581.69
2019-04-29T01:59:01.869Z,98585.13
2019-04-29T02:01:32.614Z,98587.72
2019-04-29T02:04:03.275Z,98586.60
2019-04-29T02:06:33.165Z,98586.44
2019-04-29T02:09:03.436Z,98588.54
2019-04-29T02:11:33.393Z,98586.00
2019-04-29T02:14:03.320Z,98591.61
2019-04-29T02:16:33.204Z,98584.70
2019-04-29T02:19:03.188Z,98592.10
2019-04-29T02:21:33.135Z,98592.50
2019-04-29T02:24:31.335Z,98589.45
2019-04-29T02:27:01.315Z,98594.91
2019-04-29T02:29:31.210Z,98585.88
2019-04-29T02:32:01.123Z,98590.91
2019-04-29T02:34:31.978Z,98587.28
2019-04-29T02:37:03.545Z,98589.39
2019-04-29T02:39:48.016Z,98586.46
2019-04-29T02:42:42.924Z,98584.88
2019-04-29T02:45:18.675Z,98590.27
2019-04-29T02:47:48.556Z,98584.42
2019-04-29T02:50:19.343Z,98584.47
2019-04-29T02:52:49.307Z,98588.78
2019-04-29T02:55:24.994Z,98587.29
2019-04-29T02:58:01.007Z,98586.83
2019-04-29T03:00:59.185Z,98583.48
2019-04-29T03:03:54.555Z,98582.08
2019-04-29T03:06:24.671Z,98577.05
2019-04-29T03:08:54.761Z,98570.61
2019-04-29T03:11:24.727Z,98573.11
2019-04-29T03:13:54.711Z,98573.05
2019-04-29T03:16:24.647Z,98571.06
2019-04-29T03:18:59.357Z,98573.88
2019-04-29T03:21:44.895Z,98573.14
2019-04-29T03:24:15.614Z,98576.05
2019-04-29T03:26:45.593Z,98574.47
2019-04-29T03:29:24.832Z,98571.08
2019-04-29T03:31:56.590Z,98574.69
2019-04-29T03:34:26.510Z,98573.87
2019-04-29T03:36:56.476Z,98579.66
2019-04-29T03:39:26.415Z,98578.64
2019-04-29T03:41:56.400Z,98591.34
2019-04-29T03:44:26.308Z,98593.86
2019-04-29T03:46:56.439Z,98585.37
2019-04-29T03:49:26.348Z,98583.44
2019-04-29T03:51:56.294Z,98579.55
2019-04-29T03:54:26.236Z,98579.95
2019-04-29T03:56:56.159Z,98576.37
2019-04-29T03:59:26.079Z,98581.28
2019-04-29T04:02:05.005Z,98578.71
2019-04-29T04:04:59.057Z,98576.09
2019-04-29T04:07:39.443Z,98577.30
2019-04-29T04:10:11.633Z,98576.37
2019-04-29T04:12:41.516Z,98571.41
2019-04-29T04:15:11.888Z,98574.45
2019-04-29T04:17:47.478Z,98579.36
2019-04-29T04:20:17.401Z,98582.09
2019-04-29T04:22:47.892Z,98588.32
2019-04-29T04:25:18.513Z,98590.97
2019-04-29T04:27:48.806Z,98601.27
2019-04-29T04:30:20.750Z,98604.03
2019-04-29T04:32:50.721Z,98604.83
2019-04-29T04:35:20.695Z,98601.60
2019-04-29T04:37:50.646Z,98602.47
2019-04-29T04:40:27.247Z,98604.03
2019-04-29T04:42:57.457Z,98603.44
2019-04-29T04:45:27.417Z,98604.30
2019-04-29T04:47:57.387Z,98609.69
2019-04-29T04:50:27.983Z,98608.34
2019-04-29T04:52:57.899Z,98613.23
2019-04-29T04:55:30.291Z,98610.92
2019-04-29T04:58:00.205Z,98614.44
2019-04-29T05:00:31.770Z,98607.58
2019-04-29T05:03:02.440Z,98614.20
2019-04-29T05:05:33.274Z,98617.72
2019-04-29T05:08:03.270Z,98616.68
2019-04-29T05:10:33.201Z,98626.22
2019-04-29T05:13:03.117Z,98622.44
2019-04-29T05:15:32.989Z,98629.56
2019-04-29T05:18:02.898Z,98628.27
2019-04-29T05:20:32.891Z,98633.98
2019-04-29T05:23:02.894Z,98632.42
2019-04-29T05:25:34.676Z,98635.92
2019-04-29T05:28:05.626Z,98629.64
2019-04-29T05:30:35.929Z,98626.53
2019-04-29T05:33:06.205Z,98630.31
2019-04-29T05:35:42.091Z,98638.63
2019-04-29T05:38:33.932Z,98644.79
2019-04-29T05:41:04.043Z,98644.52
2019-04-29T05:43:40.638Z,98650.08
2019-04-29T05:46:26.708Z,98649.45
2019-04-29T05:48:56.711Z,98657.09
2019-04-29T05:51:39.402Z,98650.43
2019-04-29T05:54:10.257Z,98649.84
2019-04-29T05:56:40.159Z,98654.99
2019-04-29T05:59:12.817Z,98659.89
2019-04-29T06:01:42.619Z,98657.75
2019-04-29T06:04:16.467Z,98669.52
2019-04-29T06:06:45.367Z,98673.12
2019-04-29T06:09:16.788Z,98660.17
2019-04-29T06:11:47.338Z,98661.33
2019-04-29T06:14:17.356Z,98662.79
2019-04-29T06:16:47.267Z,98655.06
2019-04-29T06:19:17.524Z,98660.86
2019-04-29T06:21:47.403Z,98660.63
2019-04-29T06:24:17.551Z,98658.95
2019-04-29T06:26:47.469Z,98671.48
2019-04-29T06:29:17.463Z,98671.31
2019-04-29T06:31:47.602Z,98672.30
2019-04-29T06:34:17.678Z,98676.72
2019-04-29T06:36:47.628Z,98676.08
2019-04-29T06:39:17.761Z,98680.23
2019-04-29T06:41:47.639Z,98681.48
2019-04-29T06:44:17.564Z,98680.17
2019-04-29T06:46:50.166Z,98687.05
2019-04-29T06:49:19.066Z,98683.00
2019-04-29T06:51:48.946Z,98682.02
2019-04-29T06:54:18.857Z,98686.38
2019-04-29T06:56:48.754Z,98682.18
2019-04-29T06:59:18.681Z,98677.32
2019-04-29T07:01:48.570Z,98686.17
2019-04-29T07:04:18.497Z,98683.77
2019-04-29T07:06:57.193Z,98681.09
2019-04-29T07:09:20.068Z,98685.93
2019-04-29T07:11:50.016Z,98685.56
2019-04-29T07:14:19.957Z,98683.02
2019-04-29T07:16:49.840Z,98685.66
2019-04-29T07:19:22.195Z,98682.73
2019-04-29T07:21:54.984Z,98682.57
2019-04-29T07:24:23.787Z,98683.88
2019-04-29T07:26:57.892Z,98688.00
2019-04-29T07:29:30.543Z,98684.49
2019-04-29T07:31:56.927Z,98679.48
2019-04-29T07:34:29.019Z,98681.75
2019-04-29T07:36:59.449Z,98676.03
2019-04-29T07:39:31.809Z,98674.30
2019-04-29T07:42:03.285Z,98672.35
2019-04-29T07:44:44.001Z,98677.50
2019-04-29T07:47:11.809Z,98668.30
2019-04-29T07:49:41.790Z,98675.34
2019-04-29T07:52:14.556Z,98672.30
2019-04-29T07:54:43.385Z,98673.65
2019-04-29T07:57:16.455Z,98663.33
2019-04-29T07:59:44.915Z,98670.23
2019-04-29T08:02:14.875Z,98666.97
2019-04-29T08:04:44.814Z,98671.61
2019-04-29T08:07:14.906Z,98665.13
2019-04-29T08:09:45.596Z,98669.80
2019-04-29T08:12:16.180Z,98668.80
2019-04-29T08:14:47.449Z,98666.77
2019-04-29T08:17:17.370Z,98666.31
2019-04-29T08:19:47.322Z,98666.18
2019-04-29T08:22:18.375Z,98672.65
2019-04-29T08:24:50.406Z,98668.92
2019-04-29T08:27:19.936Z,98673.33
2019-04-29T08:29:49.826Z,98671.45
2019-04-29T08:32:19.973Z,98667.36
2019-04-29T08:34:53.731Z,98674.64
2019-04-29T08:37:24.725Z,98669.98
2019-04-29T08:40:08.243Z,98676.31
2019-04-29T08:42:28.641Z,98677.78
2019-04-29T08:45:09.270Z,98669.66
2019-04-29T08:47:41.258Z,98664.30
2019-04-29T08:50:11.341Z,98670.98
2019-04-29T08:52:41.252Z,98668.64
2019-04-29T08:55:11.391Z,98668.40
2019-04-29T08:57:41.298Z,98673.06
2019-04-29T09:00:13.780Z,98670.49
2019-04-29T09:02:47.265Z,98676.63
2019-04-29T09:05:16.540Z,98671.81
2019-04-29T09:07:47.112Z,98677.57
2019-04-29T09:10:17.305Z,98675.42
2019-04-29T09:12:47.541Z,98669.57
2019-04-29T09:15:18.875Z,98678.86
2019-04-29T09:17:48.795Z,98669.01
2019-04-29T09:20:19.104Z,98667.00
2019-04-29T09:22:54.065Z,98673.88
2019-04-29T09:25:40.040Z,98673.66
2019-04-29T09:28:17.667Z,98669.11
2019-04-29T09:30:43.545Z,98668.20
2019-04-29T09:33:14.346Z,98658.02
2019-04-29T09:35:44.324Z,98657.16
2019-04-29T09:38:14.312Z,98654.20
2019-04-29T09:40:54.564Z,98654.59
2019-04-29T09:43:40.453Z,98652.42
2019-04-29T09:46:18.652Z,98650.48
2019-04-29T09:48:48.843Z,98649.23
2019-04-29T09:51:22.815Z,98649.85
2019-04-29T09:53:50.475Z,98641.89
2019-04-29T09:56:20.544Z,98646.21
2019-04-29T09:58:52.970Z,98651.23
2019-04-29T10:01:37.007Z,98647.11
2019-04-29T10:04:21.772Z,98638.48
2019-04-29T10:06:54.435Z,98631.03
2019-04-29T10:09:24.539Z,98623.45
2019-04-29T10:11:54.448Z,98626.44
2019-04-29T10:14:24.337Z,98623.03
2019-04-29T10:17:11.172Z,98621.02
2019-04-29T10:19:49.932Z,98623.66
2019-04-29T10:22:19.862Z,98618.34
2019-04-29T10:24:49.968Z,98618.16
2019-04-29T10:27:19.891Z,98612.27
2019-04-29T10:29:55.267Z,98613.56
2019-04-29T10:32:24.732Z,98600.48
2019-04-29T10:34:54.647Z,98599.30
2019-04-29T10:37:31.442Z,98598.41
2019-04-29T10:40:10.861Z,98600.60
2019-04-29T10:42:48.086Z,98596.52
2019-04-29T10:45:35.665Z,98587.73
2019-04-29T10:48:20.404Z,98592.79
2019-04-29T10:50:52.024Z,98585.62
2019-04-29T10:53:22.335Z,98580.20
2019-04-29T10:55:52.287Z,98579.35
2019-04-29T10:58:29.744Z,98573.81
2019-04-29T11:02:18.330Z,98575.00
2019-04-29T11:04:49.823Z,98574.03
2019-04-29T11:07:34.008Z,98574.80
2019-04-29T11:10:24.804Z,98566.13
2019-04-29T11:12:47.719Z,98571.39
2019-04-29T11:15:21.024Z,98565.09
2019-04-29T11:17:58.940Z,98559.75
2019-04-29T11:20:23.776Z,98550.41
2019-04-29T11:22:59.672Z,98546.89
2019-04-29T11:25:51.251Z,98545.88
2019-04-29T11:28:20.293Z,98542.23
2019-04-29T11:30:50.167Z,98550.02
2019-04-29T11:33:42.826Z,98541.03
2019-04-29T11:36:14.235Z,98545.63
2019-04-29T11:38:44.272Z,98536.58
2019-04-29T11:41:19.890Z,98537.94
2019-04-29T11:43:51.141Z,98533.42
2019-04-29T11:46:20.993Z,98522.63
2019-04-29T11:48:52.309Z,98525.27
2019-04-29T11:51:44.183Z,98522.81
2019-04-29T11:54:08.334Z,98525.36
2019-04-29T11:56:39.836Z,98519.97
2019-04-29T11:59:25.125Z,98516.86
2019-04-29T12:02:18.397Z,98508.80
2019-04-29T12:04:52.579Z,98517.14
2019-04-29T12:07:22.688Z,98511.14
2019-04-29T12:09:52.958Z,98508.46
2019-04-29T12:12:23.612Z,98514.24
2019-04-29T12:15:04.841Z,98502.34
2019-04-29T12:17:42.207Z,98508.78
2019-04-29T12:20:27.632Z,98508.52
2019-04-29T12:22:57.684Z,98501.05
2019-04-29T12:25:29.345Z,98508.83
2019-04-29T12:28:01.967Z,98500.54
2019-04-29T12:30:36.451Z,98492.84
2019-04-29T12:33:14.356Z,98494.33
2019-04-29T12:35:58.685Z,98492.78
2019-04-29T12:38:54.722Z,98496.56
2019-04-29T12:42:04.530Z,98489.74
2019-04-29T12:44:45.739Z,98491.63
2019-04-29T12:47:26.639Z,98488.58
2019-04-29T12:49:53.216Z,98496.58
2019-04-29T12:52:23.295Z,98491.80
2019-04-29T12:54:53.844Z,98486.80
2019-04-29T12:57:24.766Z,98484.31
2019-04-29T12:59:55.014Z,98492.74
2019-04-29T13:02:42.732Z,98481.94
2019-04-29T13:05:40.146Z,98475.30
2019-04-29T13:08:23.510Z,98481.46
2019-04-29T13:11:04.148Z,98479.27
2019-04-29T13:13:34.037Z,98480.87
2019-04-29T13:16:13.050Z,98468.87
2019-04-29T13:18:53.765Z,98464.92
2019-04-29T13:21:22.594Z,98469.89
2019-04-29T13:23:59.430Z,98469.91
2019-04-29T13:26:28.107Z,98467.42
2019-04-29T13:29:01.396Z,98456.41
2019-04-29T13:31:38.080Z,98461.18
2019-04-29T13:34:14.701Z,98464.02
2019-04-29T13:36:33.540Z,98456.53
2019-04-29T13:39:03.546Z,98453.22
2019-04-29T13:41:33.652Z,98447.55
2019-04-29T13:44:07.332Z,98446.73
2019-04-29T13:46:50.956Z,98437.23
2019-04-29T13:49:32.767Z,98434.23
2019-04-29T13:52:02.834Z,98435.89
2019-04-29T13:54:32.800Z,98429.45
2019-04-29T13:57:08.912Z,98438.53
2019-04-29T13:59:50.602Z,98424.26
2019-04-29T14:02:31.168Z,98424.19
2019-04-29T14:05:02.167Z,98421.94
2019-04-29T14:07:32.253Z,98425.32
2019-04-29T14:10:02.210Z,98424.75
2019-04-29T14:12:49.361Z,98428.69
2019-04-29T14:15:03.937Z,98413.95
2019-04-29T14:17:35.706Z,98416.80
2019-04-29T14:20:10.800Z,98414.99
2019-04-29T14:22:38.608Z,98410.84
2019-04-29T14:25:09.101Z,98409.94
2019-04-29T14:27:39.022Z,98404.92
2019-04-29T14:30:14.315Z,98404.95
2019-04-29T14:32:46.880Z,98400.39
2019-04-29T14:35:43.625Z,98397.16
2019-04-29T14:38:12.820Z,98387.33
2019-04-29T14:40:43.920Z,98400.14
2019-04-29T14:43:28.436Z,98396.78
2019-04-29T14:46:30.606Z,98411.59
2019-04-29T14:49:06.251Z,98398.28
2019-04-29T14:51:38.014Z,98397.80
2019-04-29T14:54:08.261Z,98403.92
2019-04-29T14:56:38.930Z,98402.22
2019-04-29T14:59:08.887Z,98414.09
2019-04-29T15:01:57.820Z,98406.22
2019-04-29T15:04:31.227Z,98407.12
2019-04-29T15:07:01.163Z,98410.67
2019-04-29T15:09:31.116Z,98420.55
2019-04-29T15:12:11.442Z,98423.40
2019-04-29T15:15:00.825Z,98435.59
2019-04-29T15:17:49.747Z,98440.38
2019-04-29T15:20:42.531Z,98444.31
2019-04-29T15:23:12.706Z,98436.87
2019-04-29T15:25:42.630Z,98441.11
2019-04-29T15:28:12.990Z,98448.46
2019-04-29T15:30:43.458Z,98438.92
2019-04-29T15:33:13.400Z,98443.31
2019-04-29T15:35:43.317Z,98438.80
2019-04-29T15:38:14.050Z,98424.98
2019-04-29T15:40:44.006Z,98425.77
2019-04-29T15:43:17.849Z,98418.28
2019-04-29T15:45:45.643Z,98422.11
2019-04-29T15:48:15.554Z,98417.20
2019-04-29T15:50:45.438Z,98414.72
2019-04-29T15:53:16.126Z,98416.18
2019-04-29T15:55:46.011Z,98414.12
2019-04-29T15:58:15.929Z,98416.80
2019-04-29T16:00:45.834Z,98421.43
2019-04-29T16:03:17.843Z,98419.83
2019-04-29T16:06:19.231Z,98406.14
2019-04-29T16:08:33.484Z,98411.36
2019-04-29T16:11:34.772Z,98411.07
2019-04-29T16:14:09.897Z,98413.20
2019-04-29T16:16:39.269Z,98413.62
2019-04-29T16:19:10.493Z,98416.75
2019-04-29T16:21:41.782Z,98418.79
2019-04-29T16:24:25.682Z,98412.75
2019-04-29T16:26:43.481Z,98412.91
2019-04-29T16:29:15.403Z,98409.13
2019-04-29T16:31:45.215Z,98409.69
2019-04-29T16:34:15.085Z,98419.23
2019-04-29T16:36:49.764Z,98418.22
2019-04-29T16:39:17.011Z,98429.07
2019-04-29T16:42:04.803Z,98427.03
2019-04-29T16:44:36.524Z,98430.96
2019-04-29T16:47:13.081Z,98437.26
2019-04-29T16:49:41.076Z,98436.28
2019-04-29T16:52:11.769Z,98437.73
2019-04-29T16:54:41.645Z,98428.88
2019-04-29T16:57:11.639Z,98428.38
2019-04-29T16:59:41.540Z,98435.38
2019-04-29T17:02:18.785Z,98436.20
2019-04-29T17:04:43.106Z,98439.31
2019-04-29T17:07:14.552Z,98443.35
2019-04-29T17:10:01.670Z,98441.02
2019-04-29T17:12:38.035Z,98444.95
2019-04-29T17:17:41.058Z,98444.83
2019-04-29T17:20:12.128Z,98449.37
2019-04-29T17:22:43.315Z,98448.88
2019-04-29T17:25:14.524Z,98453.87
2019-04-29T17:28:11.775Z,98455.56
2019-04-29T17:30:52.706Z,98455.63
2019-04-29T17:33:48.992Z,98456.04
2019-04-29T17:35:16.118Z,98443.00
2019-04-29T17:36:12.117Z,98457.05
2019-04-29T17:38:42.076Z,98460.78
2019-04-29T17:41:12.031Z,98462.50
2019-04-29T17:44:01.254Z,98460.63
2019-04-29T17:46:42.162Z,98463.22
2019-04-29T17:49:17.645Z,98463.60
2019-04-29T17:51:47.544Z,98457.89
2019-04-29T17:54:22.798Z,98464.47
2019-04-29T17:57:26.397Z,98466.22
2019-04-29T18:00:13.518Z,98465.10
2019-04-29T18:03:01.071Z,98471.23
2019-04-29T18:05:52.936Z,98473.81
2019-04-29T18:08:20.922Z,98468.16
2019-04-29T18:10:55.739Z,98471.84
2019-04-29T18:13:26.434Z,98479.34
2019-04-29T18:16:01.537Z,98474.59
2019-04-29T18:18:48.613Z,98478.45
2019-04-29T18:21:37.300Z,98480.18
2019-04-29T18:24:25.383Z,98482.90
2019-04-29T18:27:01.654Z,98487.34
2019-04-29T18:29:36.328Z,98487.03
2019-04-29T18:32:06.396Z,98487.68
2019-04-29T18:34:37.469Z,98488.79
2019-04-29T18:37:06.983Z,98493.72
2019-04-29T18:39:37.883Z,98494.67
2019-04-29T18:42:08.108Z,98492.44
2019-04-29T18:44:42.124Z,98493.56
2019-04-29T18:47:19.993Z,98489.27
2019-04-29T18:49:42.358Z,98491.02
2019-04-29T18:52:23.003Z,98493.86
2019-04-29T18:54:45.024Z,98499.75
2019-04-29T18:57:27.404Z,98497.67
2019-04-29T18:59:46.676Z,98496.11
2019-04-29T19:02:16.546Z,98498.47
2019-04-29T19:04:53.329Z,98501.63
2019-04-29T19:07:25.431Z,98508.79
2019-04-29T19:09:56.352Z,98507.04
2019-04-29T19:12:26.730Z,98506.25
2019-04-29T19:14:57.966Z,98514.63
2019-04-29T19:17:30.885Z,98516.40
2019-04-29T19:20:00.419Z,98514.01
2019-04-29T19:22:30.378Z,98511.46
2019-04-29T19:25:00.371Z,98508.95
2019-04-29T19:27:34.524Z,98512.11
2019-04-29T19:30:02.799Z,98514.30
2019-04-29T19:32:32.913Z,98512.89
2019-04-29T19:35:02.887Z,98516.55
2019-04-29T19:37:37.518Z,98513.36
2019-04-29T19:40:07.997Z,98511.47
2019-04-29T19:42:39.687Z,98504.49
2019-04-29T19:45:13.092Z,98510.50
2019-04-29T19:47:40.365Z,98507.81
2019-04-29T19:50:10.599Z,98507.81
2019-04-29T19:52:40.473Z,98503.06
2019-04-29T19:55:10.899Z,98511.45
2019-04-29T19:57:46.516Z,98508.13
2019-04-29T20:00:13.240Z,98511.12
2019-04-29T20:02:48.661Z,98511.94
2019-04-29T20:05:24.011Z,98508.93
2019-04-29T20:07:55.535Z,98499.56
2019-04-29T20:10:28.491Z,98500.36
2019-04-29T20:12:57.806Z,98505.12
2019-04-29T20:15:32.358Z,98498.77
2019-04-29T20:18:34.515Z,98501.94
2019-04-29T20:21:09.042Z,98498.30
2019-04-29T20:23:39.336Z,98494.80
2019-04-29T20:26:15.354Z,98493.55
2019-04-29T20:28:40.718Z,98490.53
2019-04-29T20:31:19.121Z,98488.78
2019-04-29T20:33:46.927Z,98487.20
2019-04-29T20:36:16.338Z,98481.02
2019-04-29T20:38:46.808Z,98484.20
2019-04-29T20:41:30.071Z,98477.84
2019-04-29T20:43:49.579Z,98481.64
2019-04-29T20:46:19.621Z,98471.83
2019-04-29T20:48:50.517Z,98470.10
2019-04-29T20:51:23.184Z,98475.64
2019-04-29T20:53:59.484Z,98472.62
2019-04-29T20:56:34.774Z,98469.45
2019-04-29T20:59:02.015Z,98464.07
2019-04-29T21:01:42.916Z,98464.22
2019-04-29T21:04:08.126Z,98460.41
2019-04-29T21:06:43.888Z,98459.33
2019-04-29T21:09:10.144Z,98458.83
2019-04-29T21:11:51.700Z,98453.77
2019-04-29T21:14:34.101Z,98455.99
2019-04-29T21:17:07.934Z,98444.59
2019-04-29T21:19:36.793Z,98448.57
2019-04-29T21:22:07.700Z,98450.94
2019-04-29T21:24:38.169Z,98450.62
2019-04-29T21:27:08.174Z,98446.66
2019-04-29T21:29:39.063Z,98445.23
2019-04-29T21:32:09.605Z,98437.78
2019-04-29T21:34:51.933Z,98435.39
2019-04-29T21:37:45.946Z,98436.04
2019-04-29T21:40:24.234Z,98429.06
2019-04-29T21:43:06.316Z,98426.20
2019-04-29T21:45:39.932Z,98429.21
2019-04-29T21:48:08.513Z,98424.62
2019-04-29T21:50:38.819Z,98425.11
2019-04-29T21:53:08.751Z,98422.72
2019-04-29T21:55:38.645Z,98422.41
2019-04-29T21:58:08.528Z,98426.55
2019-04-29T22:00:39.351Z,98420.03
2019-04-29T22:03:09.603Z,98415.14
2019-04-29T22:05:39.841Z,98416.09
2019-04-29T22:08:09.841Z,98420.82
2019-04-29T22:10:39.733Z,98418.94
2019-04-29T22:13:10.397Z,98417.67
2019-04-29T22:15:42.434Z,98418.46
2019-04-29T22:18:13.909Z,98413.07
2019-04-29T22:20:43.818Z,98411.80
2019-04-29T22:23:15.198Z,98407.52
2019-04-29T22:25:47.218Z,98407.37
2019-04-29T22:28:19.788Z,98414.16
2019-04-29T22:30:49.770Z,98415.74
2019-04-29T22:33:20.794Z,98417.66
2019-04-29T22:35:51.341Z,98418.28
2019-04-29T22:38:21.322Z,98411.80
2019-04-29T22:40:52.567Z,98415.74
2019-04-29T22:43:40.381Z,98423.34
2019-04-29T22:46:11.929Z,98428.09
2019-04-29T22:48:45.386Z,98432.40
2019-04-29T22:51:15.130Z,98419.41
2019-04-29T22:53:48.138Z,98418.92
2019-04-29T22:56:17.084Z,98415.13
2019-04-29T22:58:47.500Z,98408.80
2019-04-29T23:01:17.815Z,98405.93
2019-04-29T23:03:47.892Z,98406.57
2019-04-29T23:06:17.819Z,98405.94
2019-04-29T23:08:47.848Z,98403.72
2019-04-29T23:11:17.855Z,98395.48
2019-04-29T23:13:49.089Z,98398.30
2019-04-29T23:16:19.453Z,98390.98
2019-04-29T23:18:49.534Z,98392.59
2019-04-29T23:21:44.607Z,98391.19
2019-04-29T23:24:26.039Z,98387.52
2019-04-29T23:26:56.131Z,98382.59
2019-04-29T23:29:26.008Z,98382.12
2019-04-29T23:31:59.646Z,98383.74
2019-04-29T23:34:29.138Z,98384.98
2019-04-29T23:36:59.558Z,98388.64
2019-04-29T23:39:29.544Z,98382.28
2019-04-29T23:41:59.428Z,98376.08
2019-04-29T23:44:29.362Z,98371.95
2019-04-29T23:46:59.269Z,98373.06
2019-04-29T23:49:30.107Z,98364.04
2019-04-29T23:52:00.009Z,98368.13
2019-04-29T23:54:32.179Z,98359.27
2019-04-29T23:57:23.712Z,98360.23
